sensor_id;sensor_type;location;lat;lon;timestamp;temperature;humidity
15357;DHT22;7778;48.792;9.260;2024-02-26T00:02:30;8.40;99.90
15357;DHT22;7778;48.792;9.260;2024-02-26T00:05:16;8.40;99.90
15357;DHT22;7778;48.792;9.260;2024-02-26T00:08:01;8.40;99.90
15357;DHT22;7778;48.792;9.260;2024-02-26T00:10:47;8.30;99.90
15357;DHT22;7778;48.792;9.260;2024-02-26T00:13:34;8.30;99.90
15357;DHT22;7778;48.792;9.260;2024-02-26T00:16:20;8.30;99.90
15357;DHT22;7778;48.792;9.260;2024-02-26T00:19:06;8.20;99.90
15357;DHT22;7778;48.792;9.260;2024-02-26T00:21:51;8.20;99.90
15357;DHT22;7778;48.792;9.260;2024-02-26T00:24:37;8.20;99.90
15357;DHT22;7778;48.792;9.260;2024-02-26T00:27:25;8.10;99.90
15357;DHT22;7778;48.792;9.260;2024-02-26T00:30:12;8.20;99.90
15357;DHT22;7778;48.792;9.260;2024-02-26T00:32:58;8.10;99.90
15357;DHT22;7778;48.792;9.260;2024-02-26T00:35:43;8.00;99.90
15357;DHT22;7778;48.792;9.260;2024-02-26T00:38:29;8.00;99.90
15357;DHT22;7778;48.792;9.260;2024-02-26T00:41:14;8.00;99.90
15357;DHT22;7778;48.792;9.260;2024-02-26T00:44:00;8.10;99.90
15357;DHT22;7778;48.792;9.260;2024-02-26T00:46:47;8.10;99.90
15357;DHT22;7778;48.792;9.260;2024-02-26T00:49:32;8.20;99.90
15357;DHT22;7778;48.792;9.260;2024-02-26T00:52:18;8.30;99.90
15357;DHT22;7778;48.792;9.260;2024-02-26T00:55:04;8.40;99.90
15357;DHT22;7778;48.792;9.260;2024-02-26T00:57:51;8.40;99.90
15357;DHT22;7778;48.792;9.260;2024-02-26T01:00:36;8.50;99.90
15357;DHT22;7778;48.792;9.260;2024-02-26T01:03:23;8.50;99.90
15357;DHT22;7778;48.792;9.260;2024-02-26T01:06:09;8.50;99.90
15357;DHT22;7778;48.792;9.260;2024-02-26T01:08:54;8.80;99.90
15357;DHT22;7778;48.792;9.260;2024-02-26T01:11:40;8.30;99.90
15357;DHT22;7778;48.792;9.260;2024-02-26T01:14:26;8.40;99.90
15357;DHT22;7778;48.792;9.260;2024-02-26T01:17:12;8.40;99.90
15357;DHT22;7778;48.792;9.260;2024-02-26T01:19:59;8.30;99.90
15357;DHT22;7778;48.792;9.260;2024-02-26T01:22:44;8.00;99.90
15357;DHT22;7778;48.792;9.260;2024-02-26T01:25:30;8.00;99.90
15357;DHT22;7778;48.792;9.260;2024-02-26T01:28:16;8.00;99.90
15357;DHT22;7778;48.792;9.260;2024-02-26T01:31:02;8.10;99.90
15357;DHT22;7778;48.792;9.260;2024-02-26T01:33:49;8.10;99.90
15357;DHT22;7778;48.792;9.260;2024-02-26T01:36:36;7.90;99.90
15357;DHT22;7778;48.792;9.260;2024-02-26T01:39:21;7.90;99.90
15357;DHT22;7778;48.792;9.260;2024-02-26T01:42:07;8.10;99.90
15357;DHT22;7778;48.792;9.260;2024-02-26T01:44:53;8.10;99.90
15357;DHT22;7778;48.792;9.260;2024-02-26T01:47:38;8.20;99.90
15357;DHT22;7778;48.792;9.260;2024-02-26T01:50:24;8.20;99.90
15357;DHT22;7778;48.792;9.260;2024-02-26T01:53:11;8.20;99.90
15357;DHT22;7778;48.792;9.260;2024-02-26T01:55:57;8.10;99.90
15357;DHT22;7778;48.792;9.260;2024-02-26T01:58:43;8.10;99.90
15357;DHT22;7778;48.792;9.260;2024-02-26T02:01:30;8.20;99.90
15357;DHT22;7778;48.792;9.260;2024-02-26T02:04:17;8.20;99.90
15357;DHT22;7778;48.792;9.260;2024-02-26T02:07:02;8.10;99.90
15357;DHT22;7778;48.792;9.260;2024-02-26T02:09:50;8.10;99.90
15357;DHT22;7778;48.792;9.260;2024-02-26T02:12:36;8.10;99.90
15357;DHT22;7778;48.792;9.260;2024-02-26T02:15:24;8.10;99.90
15357;DHT22;7778;48.792;9.260;2024-02-26T02:18:09;8.10;99.90
15357;DHT22;7778;48.792;9.260;2024-02-26T02:20:56;8.10;99.90
15357;DHT22;7778;48.792;9.260;2024-02-26T02:23:43;7.80;99.90
15357;DHT22;7778;48.792;9.260;2024-02-26T02:26:30;7.70;99.90
15357;DHT22;7778;48.792;9.260;2024-02-26T02:29:16;7.80;99.90
15357;DHT22;7778;48.792;9.260;2024-02-26T02:32:03;8.00;99.90
15357;DHT22;7778;48.792;9.260;2024-02-26T02:34:49;8.10;99.90
15357;DHT22;7778;48.792;9.260;2024-02-26T02:37:36;8.20;99.90
15357;DHT22;7778;48.792;9.260;2024-02-26T02:40:22;8.20;99.90
15357;DHT22;7778;48.792;9.260;2024-02-26T02:43:07;8.20;99.90
15357;DHT22;7778;48.792;9.260;2024-02-26T02:45:53;8.10;99.90
15357;DHT22;7778;48.792;9.260;2024-02-26T02:48:38;7.80;99.90
15357;DHT22;7778;48.792;9.260;2024-02-26T02:51:24;8.00;99.90
15357;DHT22;7778;48.792;9.260;2024-02-26T02:54:11;8.10;99.90
15357;DHT22;7778;48.792;9.260;2024-02-26T02:56:56;8.10;99.90
15357;DHT22;7778;48.792;9.260;2024-02-26T02:59:43;8.10;99.90
15357;DHT22;7778;48.792;9.260;2024-02-26T03:02:29;8.00;99.90
15357;DHT22;7778;48.792;9.260;2024-02-26T03:05:19;7.90;99.90
15357;DHT22;7778;48.792;9.260;2024-02-26T03:08:05;8.10;99.90
15357;DHT22;7778;48.792;9.260;2024-02-26T03:10:52;8.10;99.90
15357;DHT22;7778;48.792;9.260;2024-02-26T03:13:38;8.20;99.90
15357;DHT22;7778;48.792;9.260;2024-02-26T03:16:24;8.10;99.90
15357;DHT22;7778;48.792;9.260;2024-02-26T03:19:09;8.00;99.90
15357;DHT22;7778;48.792;9.260;2024-02-26T03:21:55;7.70;99.90
15357;DHT22;7778;48.792;9.260;2024-02-26T03:24:41;7.80;99.90
15357;DHT22;7778;48.792;9.260;2024-02-26T03:27:27;7.80;99.90
15357;DHT22;7778;48.792;9.260;2024-02-26T03:30:13;7.70;99.90
15357;DHT22;7778;48.792;9.260;2024-02-26T03:32:59;7.60;99.90
15357;DHT22;7778;48.792;9.260;2024-02-26T03:35:44;7.80;99.90
15357;DHT22;7778;48.792;9.260;2024-02-26T03:38:30;8.00;99.90
15357;DHT22;7778;48.792;9.260;2024-02-26T03:41:16;8.00;99.90
15357;DHT22;7778;48.792;9.260;2024-02-26T03:44:03;7.90;99.90
15357;DHT22;7778;48.792;9.260;2024-02-26T03:46:49;7.80;99.90
15357;DHT22;7778;48.792;9.260;2024-02-26T03:49:35;7.70;99.90
15357;DHT22;7778;48.792;9.260;2024-02-26T03:52:20;7.70;99.90
15357;DHT22;7778;48.792;9.260;2024-02-26T03:55:06;7.70;99.90
15357;DHT22;7778;48.792;9.260;2024-02-26T03:57:53;7.80;99.90
15357;DHT22;7778;48.792;9.260;2024-02-26T04:00:40;7.90;99.90
15357;DHT22;7778;48.792;9.260;2024-02-26T04:03:25;7.90;99.90
15357;DHT22;7778;48.792;9.260;2024-02-26T04:06:11;8.00;99.90
15357;DHT22;7778;48.792;9.260;2024-02-26T04:08:58;8.10;99.90
15357;DHT22;7778;48.792;9.260;2024-02-26T04:11:45;8.20;99.90
15357;DHT22;7778;48.792;9.260;2024-02-26T04:14:30;8.10;99.90
15357;DHT22;7778;48.792;9.260;2024-02-26T04:17:17;8.10;99.90
15357;DHT22;7778;48.792;9.260;2024-02-26T04:20:04;8.00;99.90
15357;DHT22;7778;48.792;9.260;2024-02-26T04:22:50;7.80;99.90
15357;DHT22;7778;48.792;9.260;2024-02-26T04:25:36;7.90;99.90
15357;DHT22;7778;48.792;9.260;2024-02-26T04:28:22;7.90;99.90
15357;DHT22;7778;48.792;9.260;2024-02-26T04:31:10;8.00;99.90
15357;DHT22;7778;48.792;9.260;2024-02-26T04:33:56;8.10;99.90
15357;DHT22;7778;48.792;9.260;2024-02-26T04:36:42;8.00;99.90
15357;DHT22;7778;48.792;9.260;2024-02-26T04:39:27;7.90;99.90
15357;DHT22;7778;48.792;9.260;2024-02-26T04:42:13;7.90;99.90
15357;DHT22;7778;48.792;9.260;2024-02-26T04:44:58;8.00;99.90
15357;DHT22;7778;48.792;9.260;2024-02-26T04:47:44;7.80;99.90
15357;DHT22;7778;48.792;9.260;2024-02-26T04:50:33;7.80;99.90
15357;DHT22;7778;48.792;9.260;2024-02-26T04:53:19;7.80;99.90
15357;DHT22;7778;48.792;9.260;2024-02-26T04:56:05;8.00;99.90
15357;DHT22;7778;48.792;9.260;2024-02-26T04:58:51;7.90;99.90
15357;DHT22;7778;48.792;9.260;2024-02-26T05:01:37;7.90;99.90
15357;DHT22;7778;48.792;9.260;2024-02-26T05:04:23;7.80;99.90
15357;DHT22;7778;48.792;9.260;2024-02-26T05:07:10;7.60;99.90
15357;DHT22;7778;48.792;9.260;2024-02-26T05:09:56;7.60;99.90
15357;DHT22;7778;48.792;9.260;2024-02-26T05:12:42;7.50;99.90
15357;DHT22;7778;48.792;9.260;2024-02-26T05:15:28;7.50;99.90
15357;DHT22;7778;48.792;9.260;2024-02-26T05:18:13;7.60;99.90
15357;DHT22;7778;48.792;9.260;2024-02-26T05:20:59;7.60;99.90
15357;DHT22;7778;48.792;9.260;2024-02-26T05:23:46;7.70;99.90
15357;DHT22;7778;48.792;9.260;2024-02-26T05:26:32;7.80;99.90
15357;DHT22;7778;48.792;9.260;2024-02-26T05:29:18;7.80;99.90
15357;DHT22;7778;48.792;9.260;2024-02-26T05:32:04;7.70;99.90
15357;DHT22;7778;48.792;9.260;2024-02-26T05:34:51;7.70;99.90
15357;DHT22;7778;48.792;9.260;2024-02-26T05:37:37;7.70;99.90
15357;DHT22;7778;48.792;9.260;2024-02-26T05:40:24;7.70;99.90
15357;DHT22;7778;48.792;9.260;2024-02-26T05:43:09;7.90;99.90
15357;DHT22;7778;48.792;9.260;2024-02-26T05:45:55;8.00;99.90
15357;DHT22;7778;48.792;9.260;2024-02-26T05:48:41;8.10;99.90
15357;DHT22;7778;48.792;9.260;2024-02-26T05:51:27;8.00;99.90
15357;DHT22;7778;48.792;9.260;2024-02-26T05:54:12;7.90;99.90
15357;DHT22;7778;48.792;9.260;2024-02-26T05:56:59;7.90;99.90
15357;DHT22;7778;48.792;9.260;2024-02-26T05:59:45;7.80;99.90
15357;DHT22;7778;48.792;9.260;2024-02-26T06:02:32;7.80;99.90
15357;DHT22;7778;48.792;9.260;2024-02-26T06:05:17;7.90;99.90
15357;DHT22;7778;48.792;9.260;2024-02-26T06:08:04;7.60;99.90
15357;DHT22;7778;48.792;9.260;2024-02-26T06:10:51;7.60;99.90
15357;DHT22;7778;48.792;9.260;2024-02-26T06:13:37;7.60;99.90
15357;DHT22;7778;48.792;9.260;2024-02-26T06:16:23;7.40;99.90
15357;DHT22;7778;48.792;9.260;2024-02-26T06:19:09;7.50;99.90
15357;DHT22;7778;48.792;9.260;2024-02-26T06:21:55;7.50;99.90
15357;DHT22;7778;48.792;9.260;2024-02-26T06:24:40;7.20;99.90
15357;DHT22;7778;48.792;9.260;2024-02-26T06:27:25;7.00;99.90
15357;DHT22;7778;48.792;9.260;2024-02-26T06:30:13;7.10;99.90
15357;DHT22;7778;48.792;9.260;2024-02-26T06:32:59;7.20;99.90
15357;DHT22;7778;48.792;9.260;2024-02-26T06:35:45;7.20;99.90
15357;DHT22;7778;48.792;9.260;2024-02-26T06:38:30;7.20;99.90
15357;DHT22;7778;48.792;9.260;2024-02-26T06:41:16;7.30;99.90
15357;DHT22;7778;48.792;9.260;2024-02-26T06:44:02;7.20;99.90
15357;DHT22;7778;48.792;9.260;2024-02-26T06:46:49;7.40;99.90
15357;DHT22;7778;48.792;9.260;2024-02-26T06:49:35;7.30;99.90
15357;DHT22;7778;48.792;9.260;2024-02-26T06:52:20;7.40;99.90
15357;DHT22;7778;48.792;9.260;2024-02-26T06:55:06;7.40;99.90
15357;DHT22;7778;48.792;9.260;2024-02-26T06:57:52;7.50;99.90
15357;DHT22;7778;48.792;9.260;2024-02-26T07:00:38;7.60;99.90
15357;DHT22;7778;48.792;9.260;2024-02-26T07:03:25;7.60;99.90
15357;DHT22;7778;48.792;9.260;2024-02-26T07:06:10;7.70;99.90
15357;DHT22;7778;48.792;9.260;2024-02-26T07:08:57;7.80;99.90
15357;DHT22;7778;48.792;9.260;2024-02-26T07:11:42;8.10;99.90
15357;DHT22;7778;48.792;9.260;2024-02-26T07:14:28;8.10;99.90
15357;DHT22;7778;48.792;9.260;2024-02-26T07:17:14;8.20;99.90
15357;DHT22;7778;48.792;9.260;2024-02-26T07:20:01;8.20;99.90
15357;DHT22;7778;48.792;9.260;2024-02-26T07:22:48;8.20;99.90
15357;DHT22;7778;48.792;9.260;2024-02-26T07:25:34;8.10;99.90
15357;DHT22;7778;48.792;9.260;2024-02-26T07:28:19;8.10;99.90
15357;DHT22;7778;48.792;9.260;2024-02-26T07:31:05;8.30;99.90
15357;DHT22;7778;48.792;9.260;2024-02-26T07:33:51;8.30;99.90
15357;DHT22;7778;48.792;9.260;2024-02-26T07:36:38;8.20;99.90
15357;DHT22;7778;48.792;9.260;2024-02-26T07:39:23;8.20;99.90
15357;DHT22;7778;48.792;9.260;2024-02-26T07:42:09;8.20;99.90
15357;DHT22;7778;48.792;9.260;2024-02-26T07:44:55;8.30;99.90
15357;DHT22;7778;48.792;9.260;2024-02-26T07:47:41;8.20;99.90
15357;DHT22;7778;48.792;9.260;2024-02-26T07:50:27;8.40;99.90
15357;DHT22;7778;48.792;9.260;2024-02-26T07:53:14;8.40;99.90
15357;DHT22;7778;48.792;9.260;2024-02-26T07:56:00;8.20;99.90
15357;DHT22;7778;48.792;9.260;2024-02-26T07:58:45;8.10;99.90
15357;DHT22;7778;48.792;9.260;2024-02-26T08:01:31;8.30;99.90
15357;DHT22;7778;48.792;9.260;2024-02-26T08:04:18;8.10;99.90
15357;DHT22;7778;48.792;9.260;2024-02-26T08:07:03;8.20;99.90
15357;DHT22;7778;48.792;9.260;2024-02-26T08:09:50;8.20;99.90
15357;DHT22;7778;48.792;9.260;2024-02-26T08:12:36;8.40;99.90
15357;DHT22;7778;48.792;9.260;2024-02-26T08:15:22;8.40;99.90
15357;DHT22;7778;48.792;9.260;2024-02-26T08:18:07;8.50;99.90
15357;DHT22;7778;48.792;9.260;2024-02-26T08:20:53;8.70;99.90
15357;DHT22;7778;48.792;9.260;2024-02-26T08:23:39;8.80;99.90
15357;DHT22;7778;48.792;9.260;2024-02-26T08:26:25;8.70;99.90
15357;DHT22;7778;48.792;9.260;2024-02-26T08:29:11;8.50;99.90
15357;DHT22;7778;48.792;9.260;2024-02-26T08:31:57;8.70;99.90
15357;DHT22;7778;48.792;9.260;2024-02-26T08:34:43;8.80;99.90
15357;DHT22;7778;48.792;9.260;2024-02-26T08:37:29;9.10;99.90
15357;DHT22;7778;48.792;9.260;2024-02-26T08:40:14;9.10;99.90
15357;DHT22;7778;48.792;9.260;2024-02-26T08:43:01;9.10;99.90
15357;DHT22;7778;48.792;9.260;2024-02-26T08:45:47;9.30;99.90
15357;DHT22;7778;48.792;9.260;2024-02-26T08:48:32;9.40;99.90
15357;DHT22;7778;48.792;9.260;2024-02-26T08:51:18;9.60;99.90
15357;DHT22;7778;48.792;9.260;2024-02-26T08:54:04;9.70;99.90
15357;DHT22;7778;48.792;9.260;2024-02-26T08:56:49;9.70;99.90
15357;DHT22;7778;48.792;9.260;2024-02-26T08:59:36;9.90;99.90
15357;DHT22;7778;48.792;9.260;2024-02-26T09:02:22;9.80;99.90
15357;DHT22;7778;48.792;9.260;2024-02-26T09:05:08;9.70;99.90
15357;DHT22;7778;48.792;9.260;2024-02-26T09:07:54;9.80;99.90
15357;DHT22;7778;48.792;9.260;2024-02-26T09:10:39;9.80;99.90
15357;DHT22;7778;48.792;9.260;2024-02-26T09:13:25;10.00;99.90
15357;DHT22;7778;48.792;9.260;2024-02-26T09:16:13;10.20;99.90
15357;DHT22;7778;48.792;9.260;2024-02-26T09:18:58;10.40;99.90
15357;DHT22;7778;48.792;9.260;2024-02-26T09:21:44;10.40;99.90
15357;DHT22;7778;48.792;9.260;2024-02-26T09:24:30;10.20;99.90
15357;DHT22;7778;48.792;9.260;2024-02-26T09:27:16;10.00;99.90
15357;DHT22;7778;48.792;9.260;2024-02-26T09:30:01;9.90;99.90
15357;DHT22;7778;48.792;9.260;2024-02-26T09:32:50;9.90;99.90
15357;DHT22;7778;48.792;9.260;2024-02-26T09:35:36;9.70;99.90
15357;DHT22;7778;48.792;9.260;2024-02-26T09:38:21;10.00;99.90
15357;DHT22;7778;48.792;9.260;2024-02-26T09:41:14;9.70;99.90
15357;DHT22;7778;48.792;9.260;2024-02-26T09:44:02;9.70;99.90
15357;DHT22;7778;48.792;9.260;2024-02-26T09:46:51;10.00;99.90
15357;DHT22;7778;48.792;9.260;2024-02-26T09:49:39;9.90;99.90
15357;DHT22;7778;48.792;9.260;2024-02-26T09:52:25;10.00;99.90
15357;DHT22;7778;48.792;9.260;2024-02-26T09:55:13;10.30;99.90
15357;DHT22;7778;48.792;9.260;2024-02-26T09:57:58;10.10;99.90
15357;DHT22;7778;48.792;9.260;2024-02-26T10:00:50;10.20;99.90
15357;DHT22;7778;48.792;9.260;2024-02-26T10:03:39;10.40;99.90
15357;DHT22;7778;48.792;9.260;2024-02-26T10:06:29;10.40;99.90
15357;DHT22;7778;48.792;9.260;2024-02-26T10:09:15;10.50;99.90
15357;DHT22;7778;48.792;9.260;2024-02-26T10:12:02;11.20;99.90
15357;DHT22;7778;48.792;9.260;2024-02-26T10:14:48;12.40;99.90
15357;DHT22;7778;48.792;9.260;2024-02-26T10:17:35;13.30;99.90
15357;DHT22;7778;48.792;9.260;2024-02-26T10:20:22;14.30;99.90
15357;DHT22;7778;48.792;9.260;2024-02-26T10:23:11;14.80;99.90
15357;DHT22;7778;48.792;9.260;2024-02-26T10:25:57;15.10;99.90
15357;DHT22;7778;48.792;9.260;2024-02-26T10:28:43;15.00;99.90
15357;DHT22;7778;48.792;9.260;2024-02-26T10:31:30;15.00;99.90
15357;DHT22;7778;48.792;9.260;2024-02-26T10:34:16;15.30;99.90
15357;DHT22;7778;48.792;9.260;2024-02-26T10:37:02;15.80;99.90
15357;DHT22;7778;48.792;9.260;2024-02-26T10:39:50;15.90;99.90
15357;DHT22;7778;48.792;9.260;2024-02-26T10:42:35;16.10;99.90
15357;DHT22;7778;48.792;9.260;2024-02-26T10:45:22;16.40;99.90
15357;DHT22;7778;48.792;9.260;2024-02-26T10:48:09;16.40;99.90
15357;DHT22;7778;48.792;9.260;2024-02-26T10:50:56;16.70;99.90
15357;DHT22;7778;48.792;9.260;2024-02-26T10:53:44;16.30;99.90
15357;DHT22;7778;48.792;9.260;2024-02-26T10:56:34;15.80;99.90
15357;DHT22;7778;48.792;9.260;2024-02-26T10:59:22;15.50;99.90
15357;DHT22;7778;48.792;9.260;2024-02-26T11:02:08;14.70;99.90
15357;DHT22;7778;48.792;9.260;2024-02-26T11:04:55;14.90;99.90
15357;DHT22;7778;48.792;9.260;2024-02-26T11:07:42;14.90;99.90
15357;DHT22;7778;48.792;9.260;2024-02-26T11:10:29;14.70;99.90
15357;DHT22;7778;48.792;9.260;2024-02-26T11:13:18;14.90;99.90
15357;DHT22;7778;48.792;9.260;2024-02-26T11:16:04;15.10;99.90
15357;DHT22;7778;48.792;9.260;2024-02-26T11:18:52;15.70;99.90
15357;DHT22;7778;48.792;9.260;2024-02-26T11:21:39;16.70;99.90
15357;DHT22;7778;48.792;9.260;2024-02-26T11:24:26;17.40;99.90
15357;DHT22;7778;48.792;9.260;2024-02-26T11:27:12;17.30;99.90
15357;DHT22;7778;48.792;9.260;2024-02-26T11:30:01;17.00;99.90
15357;DHT22;7778;48.792;9.260;2024-02-26T11:32:49;17.00;99.90
15357;DHT22;7778;48.792;9.260;2024-02-26T11:35:36;16.80;99.90
15357;DHT22;7778;48.792;9.260;2024-02-26T11:38:24;16.40;99.90
15357;DHT22;7778;48.792;9.260;2024-02-26T11:41:12;15.90;99.90
15357;DHT22;7778;48.792;9.260;2024-02-26T11:43:59;15.70;99.90
15357;DHT22;7778;48.792;9.260;2024-02-26T11:46:47;15.60;99.90
15357;DHT22;7778;48.792;9.260;2024-02-26T11:49:33;15.20;99.90
15357;DHT22;7778;48.792;9.260;2024-02-26T11:52:20;15.10;99.90
15357;DHT22;7778;48.792;9.260;2024-02-26T11:55:06;15.00;99.90
15357;DHT22;7778;48.792;9.260;2024-02-26T11:57:53;15.00;99.90
15357;DHT22;7778;48.792;9.260;2024-02-26T12:00:40;14.90;99.90
15357;DHT22;7778;48.792;9.260;2024-02-26T12:03:28;14.80;99.90
15357;DHT22;7778;48.792;9.260;2024-02-26T12:06:15;15.10;99.90
15357;DHT22;7778;48.792;9.260;2024-02-26T12:09:01;15.10;99.90
15357;DHT22;7778;48.792;9.260;2024-02-26T12:11:48;15.30;99.90
15357;DHT22;7778;48.792;9.260;2024-02-26T12:14:34;15.50;99.90
15357;DHT22;7778;48.792;9.260;2024-02-26T12:17:21;15.60;99.90
15357;DHT22;7778;48.792;9.260;2024-02-26T12:20:10;15.50;99.90
15357;DHT22;7778;48.792;9.260;2024-02-26T12:22:57;15.20;99.90
15357;DHT22;7778;48.792;9.260;2024-02-26T12:25:43;14.70;99.90
15357;DHT22;7778;48.792;9.260;2024-02-26T12:28:32;14.50;99.90
15357;DHT22;7778;48.792;9.260;2024-02-26T12:31:17;14.20;99.90
15357;DHT22;7778;48.792;9.260;2024-02-26T12:34:03;14.40;99.90
15357;DHT22;7778;48.792;9.260;2024-02-26T12:36:51;14.60;99.90
15357;DHT22;7778;48.792;9.260;2024-02-26T12:39:38;14.40;99.90
15357;DHT22;7778;48.792;9.260;2024-02-26T12:42:24;14.40;99.90
15357;DHT22;7778;48.792;9.260;2024-02-26T12:45:10;14.10;99.90
15357;DHT22;7778;48.792;9.260;2024-02-26T12:47:56;14.10;99.90
15357;DHT22;7778;48.792;9.260;2024-02-26T12:50:44;14.20;99.90
15357;DHT22;7778;48.792;9.260;2024-02-26T12:53:32;14.40;99.90
15357;DHT22;7778;48.792;9.260;2024-02-26T12:56:18;14.70;99.90
15357;DHT22;7778;48.792;9.260;2024-02-26T12:59:04;15.00;99.90
15357;DHT22;7778;48.792;9.260;2024-02-26T13:01:50;15.30;99.90
15357;DHT22;7778;48.792;9.260;2024-02-26T13:04:36;15.40;99.90
15357;DHT22;7778;48.792;9.260;2024-02-26T13:07:23;15.20;99.90
15357;DHT22;7778;48.792;9.260;2024-02-26T13:10:10;15.00;99.90
15357;DHT22;7778;48.792;9.260;2024-02-26T13:12:57;14.70;99.90
15357;DHT22;7778;48.792;9.260;2024-02-26T13:15:43;14.50;99.90
15357;DHT22;7778;48.792;9.260;2024-02-26T13:18:29;14.30;99.90
15357;DHT22;7778;48.792;9.260;2024-02-26T13:21:16;14.10;99.90
15357;DHT22;7778;48.792;9.260;2024-02-26T13:24:04;14.00;99.90
15357;DHT22;7778;48.792;9.260;2024-02-26T13:26:55;14.00;99.90
15357;DHT22;7778;48.792;9.260;2024-02-26T13:29:41;14.00;99.90
15357;DHT22;7778;48.792;9.260;2024-02-26T13:32:27;13.90;99.90
15357;DHT22;7778;48.792;9.260;2024-02-26T13:35:15;13.90;99.90
15357;DHT22;7778;48.792;9.260;2024-02-26T13:38:01;14.10;99.90
15357;DHT22;7778;48.792;9.260;2024-02-26T13:40:47;14.30;99.90
15357;DHT22;7778;48.792;9.260;2024-02-26T13:43:34;14.20;99.90
15357;DHT22;7778;48.792;9.260;2024-02-26T13:46:20;14.30;99.90
15357;DHT22;7778;48.792;9.260;2024-02-26T13:49:08;14.40;99.90
15357;DHT22;7778;48.792;9.260;2024-02-26T13:51:54;14.30;99.90
15357;DHT22;7778;48.792;9.260;2024-02-26T13:54:40;14.40;99.90
15357;DHT22;7778;48.792;9.260;2024-02-26T13:57:26;14.30;99.90
15357;DHT22;7778;48.792;9.260;2024-02-26T14:00:14;14.30;99.90
15357;DHT22;7778;48.792;9.260;2024-02-26T14:03:07;14.20;99.90
15357;DHT22;7778;48.792;9.260;2024-02-26T14:05:52;14.40;99.90
15357;DHT22;7778;48.792;9.260;2024-02-26T14:08:38;14.50;99.90
15357;DHT22;7778;48.792;9.260;2024-02-26T14:11:24;14.50;99.90
15357;DHT22;7778;48.792;9.260;2024-02-26T14:14:10;14.60;99.90
15357;DHT22;7778;48.792;9.260;2024-02-26T14:16:56;14.70;99.90
15357;DHT22;7778;48.792;9.260;2024-02-26T14:19:42;14.60;99.90
15357;DHT22;7778;48.792;9.260;2024-02-26T14:22:28;14.40;99.90
15357;DHT22;7778;48.792;9.260;2024-02-26T14:25:15;14.40;99.90
15357;DHT22;7778;48.792;9.260;2024-02-26T14:28:01;14.20;99.90
15357;DHT22;7778;48.792;9.260;2024-02-26T14:30:46;14.20;99.90
15357;DHT22;7778;48.792;9.260;2024-02-26T14:33:33;14.10;99.90
15357;DHT22;7778;48.792;9.260;2024-02-26T14:36:19;14.10;99.90
15357;DHT22;7778;48.792;9.260;2024-02-26T14:39:05;14.10;99.90
15357;DHT22;7778;48.792;9.260;2024-02-26T14:41:51;14.20;99.90
15357;DHT22;7778;48.792;9.260;2024-02-26T14:44:36;14.10;99.90
15357;DHT22;7778;48.792;9.260;2024-02-26T14:47:22;14.10;99.90
15357;DHT22;7778;48.792;9.260;2024-02-26T14:50:09;14.10;99.90
15357;DHT22;7778;48.792;9.260;2024-02-26T14:52:55;13.90;99.90
15357;DHT22;7778;48.792;9.260;2024-02-26T14:55:41;14.00;99.90
15357;DHT22;7778;48.792;9.260;2024-02-26T14:58:27;13.80;99.90
15357;DHT22;7778;48.792;9.260;2024-02-26T15:01:13;13.80;99.90
15357;DHT22;7778;48.792;9.260;2024-02-26T15:03:58;13.80;99.90
15357;DHT22;7778;48.792;9.260;2024-02-26T15:06:49;13.70;99.90
15357;DHT22;7778;48.792;9.260;2024-02-26T15:09:36;13.70;99.90
15357;DHT22;7778;48.792;9.260;2024-02-26T15:12:22;13.70;99.90
15357;DHT22;7778;48.792;9.260;2024-02-26T15:15:08;13.60;99.90
15357;DHT22;7778;48.792;9.260;2024-02-26T15:17:54;13.70;99.90
15357;DHT22;7778;48.792;9.260;2024-02-26T15:20:40;13.70;99.90
15357;DHT22;7778;48.792;9.260;2024-02-26T15:23:27;13.40;99.90
15357;DHT22;7778;48.792;9.260;2024-02-26T15:26:13;13.70;99.90
15357;DHT22;7778;48.792;9.260;2024-02-26T15:28:59;13.50;99.90
15357;DHT22;7778;48.792;9.260;2024-02-26T15:31:45;13.50;99.90
15357;DHT22;7778;48.792;9.260;2024-02-26T15:34:30;13.50;99.90
15357;DHT22;7778;48.792;9.260;2024-02-26T15:37:16;13.50;99.90
15357;DHT22;7778;48.792;9.260;2024-02-26T15:40:05;13.50;99.90
15357;DHT22;7778;48.792;9.260;2024-02-26T15:42:51;13.40;99.90
15357;DHT22;7778;48.792;9.260;2024-02-26T15:45:37;13.30;99.90
15357;DHT22;7778;48.792;9.260;2024-02-26T15:48:23;13.30;99.90
15357;DHT22;7778;48.792;9.260;2024-02-26T15:51:18;13.40;99.90
15357;DHT22;7778;48.792;9.260;2024-02-26T15:54:04;13.30;99.90
15357;DHT22;7778;48.792;9.260;2024-02-26T15:56:51;13.30;99.90
15357;DHT22;7778;48.792;9.260;2024-02-26T15:59:37;13.10;99.90
15357;DHT22;7778;48.792;9.260;2024-02-26T16:02:22;13.00;99.90
15357;DHT22;7778;48.792;9.260;2024-02-26T16:05:09;13.00;99.90
15357;DHT22;7778;48.792;9.260;2024-02-26T16:07:58;12.90;99.90
15357;DHT22;7778;48.792;9.260;2024-02-26T16:10:46;13.00;99.90
15357;DHT22;7778;48.792;9.260;2024-02-26T16:13:33;13.10;99.90
15357;DHT22;7778;48.792;9.260;2024-02-26T16:16:21;13.00;99.90
15357;DHT22;7778;48.792;9.260;2024-02-26T16:19:13;12.90;99.90
15357;DHT22;7778;48.792;9.260;2024-02-26T16:21:58;12.80;99.90
15357;DHT22;7778;48.792;9.260;2024-02-26T16:24:44;12.70;99.90
15357;DHT22;7778;48.792;9.260;2024-02-26T16:27:29;12.70;99.90
15357;DHT22;7778;48.792;9.260;2024-02-26T16:30:16;12.60;99.90
15357;DHT22;7778;48.792;9.260;2024-02-26T16:33:02;12.50;99.90
15357;DHT22;7778;48.792;9.260;2024-02-26T16:35:48;12.50;99.90
15357;DHT22;7778;48.792;9.260;2024-02-26T16:38:34;12.50;99.90
15357;DHT22;7778;48.792;9.260;2024-02-26T16:41:21;12.60;99.90
15357;DHT22;7778;48.792;9.260;2024-02-26T16:44:07;12.50;99.90
15357;DHT22;7778;48.792;9.260;2024-02-26T16:46:54;12.30;99.90
15357;DHT22;7778;48.792;9.260;2024-02-26T16:49:39;12.20;99.90
15357;DHT22;7778;48.792;9.260;2024-02-26T16:52:25;12.10;99.90
15357;DHT22;7778;48.792;9.260;2024-02-26T16:55:11;12.00;99.90
15357;DHT22;7778;48.792;9.260;2024-02-26T16:57:57;11.90;99.90
15357;DHT22;7778;48.792;9.260;2024-02-26T17:00:43;11.80;99.90
15357;DHT22;7778;48.792;9.260;2024-02-26T17:03:30;11.70;99.90
15357;DHT22;7778;48.792;9.260;2024-02-26T17:06:16;11.70;99.90
15357;DHT22;7778;48.792;9.260;2024-02-26T17:09:07;11.60;99.90
15357;DHT22;7778;48.792;9.260;2024-02-26T17:11:53;11.50;99.90
15357;DHT22;7778;48.792;9.260;2024-02-26T17:14:38;11.70;99.90
15357;DHT22;7778;48.792;9.260;2024-02-26T17:17:24;11.50;99.90
15357;DHT22;7778;48.792;9.260;2024-02-26T17:20:11;11.50;99.90
15357;DHT22;7778;48.792;9.260;2024-02-26T17:22:58;11.50;99.90
15357;DHT22;7778;48.792;9.260;2024-02-26T17:25:44;11.40;99.90
15357;DHT22;7778;48.792;9.260;2024-02-26T17:28:29;11.40;99.90
15357;DHT22;7778;48.792;9.260;2024-02-26T17:31:15;11.40;99.90
15357;DHT22;7778;48.792;9.260;2024-02-26T17:34:01;11.60;99.90
15357;DHT22;7778;48.792;9.260;2024-02-26T17:36:48;11.40;99.90
15357;DHT22;7778;48.792;9.260;2024-02-26T17:39:34;11.50;99.90
15357;DHT22;7778;48.792;9.260;2024-02-26T17:42:20;11.40;99.90
15357;DHT22;7778;48.792;9.260;2024-02-26T17:45:06;11.30;99.90
15357;DHT22;7778;48.792;9.260;2024-02-26T17:47:52;11.30;99.90
15357;DHT22;7778;48.792;9.260;2024-02-26T17:50:37;11.20;99.90
15357;DHT22;7778;48.792;9.260;2024-02-26T17:53:24;11.20;99.90
15357;DHT22;7778;48.792;9.260;2024-02-26T17:56:10;11.20;99.90
15357;DHT22;7778;48.792;9.260;2024-02-26T17:58:57;11.20;99.90